Nicholas Clarke

Olheiro - Sunderland
19 Ago 2027
Quinta-feira
Processo

Personalidade

Adaptabilidade (6) Ambição (9) Controvérsia (1) Lealdade (16) Pressão (16) Profissionalismo (13) Espírito Esportivo (4) Temperamento (5)

Perfil

Estilo de Treinamento Democrático
Licença Continental C
Determinação 5
Gestão de Pessoas 12
Motivação 7
Disciplina 8
Satisfação no Trabalho
78%
Fadiga
0%
Função Olheiro
Salário 26.3K p/s
Contrato 14.03.2029

Desempenho

Comportamento Bom
Eficácia do Treinamento
36%
Desenvolvimento do Jogador
70%
Prevenção de Lesões
70%
Implementação Tática
45%

Eventos Recentes

Participou de uma reunião de recrutamento agora
Participou de uma reunião de recrutamento 7d atrás
Recomendou um alvo de transferência 7d atrás
Participou de uma reunião de recrutamento 7d atrás
Participou de uma reunião de recrutamento 14d atrás
Recomendou um alvo de transferência 14d atrás
Participou de uma reunião de recrutamento 14d atrás
Participou de uma reunião de recrutamento 21d atrás

Monitorando agora

150
Jogador Clube Status Habilidade Confiança Observado Última observação Último voto
Dom Ballard Leyton Orient Relatório pronto 114 / 125 76% 1 05.07.2027 -
Jofre Torrents Ajax Ativo 122 / 130 40% 2 30.05.2027 -
Alexandro Maidana Talleres Ativo 110 / 122 40% 1 30.05.2027 -
Christ Inao Oulaï Fiorentina Ativo 130 / 136 40% 4 25.05.2027 -
Dylan Lawlor Cardiff City Ativo 113 / 126 40% 4 25.05.2027 -
Sascha Britschgi Padova Ativo 112 / 127 40% 5 25.05.2027 -
Jan Bürger Gillingham Ativo 104 / 120 40% 3 23.05.2027 -
Eddy Kouadio Crotone Ativo 99 / 104 40% 2 23.05.2027 -
Josh King Chelsea Ativo 135 / 142 40% 4 22.05.2027 -
Matías Gómez Granada Ativo 118 / 123 40% 3 22.05.2027 -
Jarvis Thornton Sheffield Wednesday Ativo 109 / 108 40% 1 20.05.2027 -
Jaydee Canvot Crystal Palace Ativo 139 / 141 40% 1 20.05.2027 -
Ernie Weaver AFC Wimbledon Ativo 110 / 120 40% 2 19.05.2027 -
Nahuel Leivas Montevideo City Torque Ativo 101 / 109 40% 1 19.05.2027 -
Sabil Hansen Randers Ativo 107 / 108 40% 2 16.05.2027 -
Christos Mouzakitis Hull City Ativo 137 / 140 40% 4 16.05.2027 -
Juan Giménez Celta Ativo 119 / 122 40% 4 15.05.2027 -
Dmitry Pestryakov Dinamo Moscow Ativo 116 / 127 40% 2 15.05.2027 -
Matvey Kislyak CSKA Moscow Ativo 130 / 134 40% 3 13.05.2027 -
Afonso Assis Moreirense Ativo 107 / 113 40% 1 12.05.2027 -
Eduardo Felicíssimo Sporting CP Ativo 108 / 117 40% 1 12.05.2027 -
Gonçalo Oliveira Benfica Ativo 109 / 116 40% 1 12.05.2027 -
Lewis Miley Chelsea Ativo 143 / 150 40% 3 11.05.2027 -
Ezra Mayers West Ham United Ativo 111 / 126 40% 4 11.05.2027 -
Samuele di Benedetto Bari Ativo 106 / 118 40% 1 07.05.2027 -
Nazareno Kihm Ferro Carril Oeste Ativo 114 / 116 40% 2 06.05.2027 -
Juan Rodríguez Cagliari Ativo 127 / 123 40% 1 02.05.2027 -
Davide Bartesaghi AC Milan Ativo 130 / 134 40% 3 01.05.2027 -
Latrell Aken Groningen Ativo 102 / 116 40% 1 01.05.2027 -
Riley Owen Trento Ativo 96 / 105 40% 1 01.05.2027 -
Darryl Bakola Padova Ativo 114 / 116 40% 3 30.04.2027 -
Finn Jeltsch VfB Stuttgart Ativo 131 / 142 40% 2 29.04.2027 -
David Ozoh Derby County Ativo 121 / 128 40% 2 25.04.2027 -
Tiago Freitas Benfica Ativo 112 / 116 40% 1 25.04.2027 -
Samuel Lucero Defensa y Justicia Ativo 119 / 119 40% 2 22.04.2027 -
Daniel Kelly Oxford United Ativo 106 / 114 40% 2 21.04.2027 -
Martin Georgiev Aris Thessaloniki Ativo 113 / 113 40% 1 21.04.2027 -
Yussif Saidu Zaragoza Ativo 115 / 127 40% 2 18.04.2027 -
Lucas Bergvall Tottenham Ativo 143 / 149 40% 2 18.04.2027 -
Nevot Ratner Maccabi Haifa Ativo 113 / 117 40% 2 17.04.2027 -
Massien Ghaddari Utrecht Ativo 111 / 113 40% 1 14.04.2027 -
Caleb Yirenkyi Coventry City Ativo 132 / 143 40% 2 07.04.2027 -
Ibrahim Maza Bayer Leverkusen Ativo 138 / 145 40% 1 07.04.2027 -
Valentin Atangana Al-Ahli Ativo 121 / 140 40% 1 28.03.2027 -
Abdoulaye Kanté Al-Ettifaq Ativo 126 / 127 40% 1 26.03.2027 -
Jack Hinshelwood Brighton Ativo 152 / 144 40% 2 25.03.2027 -
James Dornelly Peterborough United Ativo 101 / 107 40% 1 25.03.2027 -
Noam Ben-Harush Maccabi Haifa Ativo 104 / 123 40% 2 23.03.2027 -
Johan Manzambi Newcastle United Ativo 136 / 146 40% 2 20.03.2027 -
Karim Coulibaly RC Strasbourg Ativo 112 / 132 40% 1 18.03.2027 -
Agustín Medina Valencia Ativo 118 / 124 40% 1 02.03.2027 -
Cemran Dansin Orlando Pirates Ativo 111 / 115 40% 1 12.01.2027 -
Thulani Erasmus Platinum Stars Ativo 103 / 109 40% 3 31.12.2026 -
Dušan Vlahović Juventus Ativo 158 / 161 40% 1 31.12.2026 -
Patrick Schulte Columbus Crew Ativo 121 / 119 40% 2 30.12.2026 -
Yousef Salech Cardiff City Ativo 129 / 125 40% 4 30.12.2026 -
Mateusz Kochalski Dynamo Kyiv Ativo 124 / 127 40% 2 30.12.2026 -
Assane Diao Lazio Ativo 148 / 144 40% 1 30.12.2026 -
Lukas Jensen Millwall Ativo 114 / 114 40% 3 28.12.2026 -
Pol Tristán Barnsley Ativo 121 / 110 40% 3 28.12.2026 -
Morgan Whittaker Middlesbrough Ativo 135 / 133 40% 3 28.12.2026 -
Sam Dalby Bolton Wanderers Ativo 115 / 113 40% 1 28.12.2026 -
Ilyas Ansah Hull City Ativo 135 / 132 40% 1 28.12.2026 -
Bongani Mothiba SuperSport United Ativo 95 / 79 40% 2 26.12.2026 -
Anatolii Trubin Juventus Ativo 147 / 155 40% 2 25.12.2026 -
James Trafford Leeds United Ativo 150 / 143 40% 2 25.12.2026 -
John Pulskamp Sporting Kansas City Ativo 111 / 112 40% 3 25.12.2026 -
Grégoire Coudert Burnley Ativo 123 / 132 40% 5 24.12.2026 -
Mykyta Turbaievskyi Zorya Ativo 122 / 109 40% 1 24.12.2026 -
Dominik Takáč Slovan Bratislava Ativo 117 / 128 40% 1 24.12.2026 -
Evidence Makgopa Orlando Pirates Ativo 112 / 118 40% 1 21.12.2026 -
Luis Vázquez Birmingham Ativo 125 / 124 40% 1 21.12.2026 -
Murphy Cooper Plymouth Argyle Ativo 120 / 117 40% 1 21.12.2026 -
Oleksandr Saputin Poltava Ativo 124 / 120 40% 1 21.12.2026 -
Leopold Wahlstedt Rosenborg Ativo 129 / 111 40% 1 20.12.2026 -
Fahad Hassan Al Shabab Ativo 128 / 128 40% 1 20.12.2026 -
Samu Maccabi Netanya Ativo 102 / 116 40% 1 20.12.2026 -
Róbert Boženík Newcastle United Ativo 121 / 126 40% 1 17.12.2026 -
Mathias Jørgensen Blackburn Rovers Ativo 111 / 114 40% 1 17.12.2026 -
Diogo Costa Manchester City Ativo 161 / 158 40% 1 16.12.2026 -
Pedro Cejas Zabbar St. Patrick Ativo 92 / 89 40% 1 14.12.2026 -
Mateo Retegui Tottenham Ativo 156 / 158 40% 1 14.12.2026 -
Themba Ngcobo SuperSport United Ativo 127 / 117 40% 3 13.12.2026 -
Josh Sargent Toronto FC Ativo 129 / 133 40% 1 13.12.2026 -
Nicolás Sumavil Platense Ativo 118 / 121 40% 3 11.12.2026 -
Aune Heggebø West Bromwich Albion Ativo 125 / 126 40% 2 11.12.2026 -
Kenan Dervišagić Floriana Ativo 109 / 101 40% 2 11.12.2026 -
Tom Cannon Sheffield United Ativo 127 / 128 40% 1 11.12.2026 -
Kévin Denkey FC Cincinnati Ativo 130 / 121 40% 2 09.12.2026 -
Bento Al-Nassr Ativo 129 / 129 40% 2 07.12.2026 -
George Hirst Stoke City Ativo 130 / 133 40% 2 03.12.2026 -
Louis Munteanu DC United Ativo 118 / 126 40% 1 03.12.2026 -
Gabriel Martinelli Brighton Ativo 156 / 157 40% 2 30.11.2026 -
Kelvin Yeboah Minnesota United FC Ativo 124 / 119 40% 1 30.11.2026 -
Radek Vítek Middlesbrough Ativo 137 / 140 40% 3 28.11.2026 -
George Wickens Lincoln City Ativo 122 / 117 40% 2 27.11.2026 -
Mandla Mahlangu Ajax Cape Town Ativo 109 / 106 40% 2 27.11.2026 -
Duncan McGuire Houston Dynamo Ativo 115 / 130 40% 2 27.11.2026 -
Mohammed Kudus Tottenham Ativo 149 / 157 40% 1 26.11.2026 -
Pascal Loretz Luzern Ativo 120 / 126 40% 4 25.11.2026 -
Elías Rafn Ólafsson FC Midtjylland Ativo 126 / 118 40% 1 25.11.2026 -
Randal Kolo Muani Juventus Ativo 154 / 149 40% 1 24.11.2026 -
Pablo Felipe West Ham United Ativo 133 / 138 40% 1 24.11.2026 -
Sagir Arce Paralimni Ativo 111 / 98 40% 1 24.11.2026 -
Tomás Chancalay Minnesota United FC Ativo 121 / 121 40% 3 21.11.2026 -
Álvaro Rodríguez Bournemouth Ativo 136 / 141 40% 1 21.11.2026 -
Razvan Balasa Crvena Zvezda Ativo 136 / 150 40% 2 20.11.2026 -
Matevž Vidovšek Olimpija Ljubljana Ativo 110 / 113 40% 1 19.11.2026 -
Tyreece Simpson Maritzburg United Ativo 81 / 90 40% 1 19.11.2026 -
Gonzalo Fulham Ativo 137 / 146 40% 1 18.11.2026 -
Jamie Cumming Oxford United Ativo 124 / 117 40% 3 16.11.2026 -
Niklas Steffen Thun Ativo 123 / 118 40% 1 16.11.2026 -
Agustín Anello Philadelphia Union Ativo 116 / 117 40% 2 10.11.2026 -
Jesus Ferreira Seattle Sounders Ativo 140 / 129 40% 1 10.11.2026 -
Iliman N'Diaye Everton Ativo 152 / 160 40% 2 09.11.2026 -
Dejan Joveljić Seattle Sounders Ativo 138 / 123 40% 1 09.11.2026 -
Martín Ojeda Orlando City Ativo 139 / 127 40% 3 08.11.2026 -
Lorent Tolaj Plymouth Argyle Ativo 127 / 114 40% 1 08.11.2026 -
Fedor Lapoukhov CSKA Sofia Ativo 112 / 119 40% 1 06.11.2026 -
Luka Gavran Toronto FC Ativo 99 / 105 40% 1 06.11.2026 -
Joe Gelhardt Hull City Ativo 123 / 129 40% 1 06.11.2026 -
Kwame Opoku Asante Kotoko Ativo 111 / 91 40% 1 05.11.2026 -
Bamba Dieng Crvena Zvezda Ativo 142 / 120 40% 1 05.11.2026 -
Caoimhin Kelleher Brentford Ativo 150 / 148 40% 2 02.11.2026 -
Lucas Lund Viborg Ativo 102 / 115 40% 1 02.11.2026 -
Niall Ennis Blackpool Ativo 115 / 115 40% 1 01.11.2026 -
Thiago Brentford Ativo 154 / 144 40% 1 30.10.2026 -
Theo Corbeanu Toronto FC Ativo 115 / 120 40% 1 29.10.2026 -
Leonardo Campana New England Revolution Ativo 138 / 124 40% 1 28.10.2026 -
Kazuki Fujita Avispa Fukuoka Ativo 127 / 123 40% 1 25.10.2026 -
Cody Gakpo Liverpool Ativo 157 / 157 40% 1 23.10.2026 -
Cameron Archer Southampton Ativo 118 / 129 40% 1 23.10.2026 -
Mads Hermansen West Ham United Ativo 130 / 134 40% 1 23.10.2026 -
Luis Ingolotti Atlético Tucumán Ativo 126 / 123 40% 1 23.10.2026 -
Bilal Bayazıt Kayserispor Ativo 109 / 124 40% 1 23.10.2026 -
CJ dos Santos San Diego Football Club Ativo 103 / 104 40% 1 20.10.2026 -
Manuel Roffo Cerro Porteno Ativo 125 / 125 40% 1 18.10.2026 -
Abduvohid Ne'matov Nasaf Ativo 115 / 114 40% 1 17.10.2026 -
Bénie Traoré New York City Ativo 126 / 123 40% 1 13.10.2026 -
Cheikh Sabaly Vancouver Whitecaps Ativo 120 / 124 40% 1 10.10.2026 -
Roman Celentano FC Cincinnati Ativo 126 / 118 40% 3 09.10.2026 -
Samuel Anakwe Remo Stars Ativo 87 / 98 40% 1 08.10.2026 -
Yeangel Montero Naxxar Lions Ativo 96 / 106 40% 1 08.10.2026 -
Jørgen Strand Larsen Crystal Palace Ativo 137 / 144 40% 1 05.10.2026 -
Dmytro Riznyk Cruz Azul Ativo 141 / 137 40% 1 04.10.2026 Mais informações
Diego Romero Universitario Ativo 118 / 122 40% 1 04.10.2026 -
Michael Cooper Sheffield United Ativo 119 / 124 40% 1 01.10.2026 -
Rodrigo Morínigo Libertad Ativo 121 / 115 40% 1 22.09.2026 -
Jan Koutný Sigma Olomouc Ativo 106 / 120 40% 1 20.09.2026 -
Derry Murkin Derby County Ativo 125 / 124 69% 1 24.08.2026 Aprovar